Time;durP1;ratioP1;P1;durP2;ratioP2;P2;SDS_P1;SDS_P2;PMS_P1;PMS_P2;Temp;Humidity;BMP_temperature;BMP_pressure;BME280_temperature;BME280_humidity;BME280_pressure;Samples;Min_cycle;Max_cycle;Signal;HPM_P1;HPM_P2
2022/03/20 00:00:41;;;;;;;;;;;77.30;1766.40;;;;;;5072920;28;19912;-73
2022/03/20 00:03:09;;;;;;;;;;;77.40;1766.40;;;;;;5073084;28;19912;-73
2022/03/20 00:05:38;;;;;;;;;;;77.20;1766.40;;;;;;5073071;28;20256;-72
2022/03/20 00:08:08;;;;;;;;;;;77.10;1766.40;;;;;;5070633;28;19908;-73
2022/03/20 00:10:34;;;;;;;;;;;77.20;1766.40;;;;;;5072899;28;19908;-71
2022/03/20 00:13:00;;;;;;;;;;;77.00;1792.00;;;;;;5072964;28;19911;-73
2022/03/20 00:15:27;;;;;;;;;;;77.10;1766.40;;;;;;5072879;28;19904;-73
2022/03/20 00:17:53;;;;;;;;;;;77.10;1792.00;;;;;;5073074;28;19913;-73
2022/03/20 00:20:18;;;;;;;;;;;77.10;1766.40;;;;;;5073093;28;20352;-77
2022/03/20 00:22:44;;;;;;;;;;;77.10;1766.40;;;;;;5073061;28;19908;-75
2022/03/20 00:25:11;;;;;;;;;;;76.90;1766.40;;;;;;5073016;28;20422;-73
2022/03/20 00:27:37;;;;;;;;;;;76.90;1792.00;;;;;;5072343;28;19973;-74
2022/03/20 00:30:03;;;;;;;;;;;76.90;1792.00;;;;;;5072830;28;19905;-72
2022/03/20 00:32:28;;;;;;;;;;;76.90;1766.40;;;;;;5072853;28;19911;-73
2022/03/20 00:34:57;;;;;;;;;;;77.00;1766.40;;;;;;5072755;28;19908;-72
2022/03/20 00:37:22;;;;;;;;;;;77.10;1766.40;;;;;;5072794;28;19919;-72
2022/03/20 00:39:48;;;;;;;;;;;77.10;1766.40;;;;;;5072745;28;20287;-72
2022/03/20 00:42:13;;;;;;;;;;;77.00;1766.40;;;;;;5075780;28;19919;-72
2022/03/20 00:44:39;;;;;;;;;;;77.00;1766.40;;;;;;5083600;28;19909;-76
2022/03/20 00:47:05;;;;;;;;;;;76.90;1766.40;;;;;;5082413;28;19908;-74
2022/03/20 00:49:31;;;;;;;;;;;77.00;1766.40;;;;;;5082590;28;19914;-80
2022/03/20 00:51:56;;;;;;;;;;;77.00;1766.40;;;;;;5083973;28;20277;-72
2022/03/20 00:54:22;;;;;;;;;;;77.00;1766.40;;;;;;5081682;28;19907;-73
2022/03/20 00:56:47;;;;;;;;;;;76.90;1766.40;;;;;;5081281;28;19912;-76
2022/03/20 00:59:13;;;;;;;;;;;76.90;1766.40;;;;;;5082937;28;19904;-79
2022/03/20 01:01:39;;;;;;;;;;;77.00;1766.40;;;;;;5082411;28;20380;-72
2022/03/20 01:04:04;;;;;;;;;;;77.00;1766.40;;;;;;5090414;28;19904;-73
2022/03/20 01:06:31;;;;;;;;;;;76.90;1766.40;;;;;;5085295;28;19970;-73
2022/03/20 01:08:58;;;;;;;;;;;76.90;1766.40;;;;;;5087647;28;19908;-74
2022/03/20 01:11:23;;;;;;;;;;;76.80;1792.00;;;;;;5082952;28;20003;-80
2022/03/20 01:13:49;;;;;;;;;;;76.80;1792.00;;;;;;5085765;28;19958;-77
2022/03/20 01:16:15;;;;;;;;;;;76.80;1792.00;;;;;;5086794;28;19963;-73
2022/03/20 01:18:40;;;;;;;;;;;76.80;1792.00;;;;;;5085336;28;19905;-79
2022/03/20 01:21:07;;;;;;;;;;;76.80;1792.00;;;;;;5087096;28;19904;-78
2022/03/20 01:23:33;;;;;;;;;;;76.80;1792.00;;;;;;5085230;28;20282;-79
2022/03/20 01:25:59;;;;;;;;;;;52.10;1792.00;;;;;;5085340;28;19911;-73
2022/03/20 01:28:24;;;;;;;;;;;52.10;1792.00;;;;;;5087936;28;19911;-73
2022/03/20 01:30:50;;;;;;;;;;;52.10;1792.00;;;;;;5086645;28;20015;-73
2022/03/20 01:33:17;;;;;;;;;;;52.10;1792.00;;;;;;5084338;28;20002;-74
2022/03/20 01:35:43;;;;;;;;;;;76.80;1792.00;;;;;;5087240;28;19943;-77
2022/03/20 01:38:10;;;;;;;;;;;77.20;1766.40;;;;;;5084086;28;20402;-73
2022/03/20 01:40:36;;;;;;;;;;;77.00;1766.40;;;;;;5085649;28;19904;-74
2022/03/20 01:43:02;;;;;;;;;;;77.00;1766.40;;;;;;5084610;28;19908;-76
2022/03/20 01:45:27;;;;;;;;;;;76.80;1766.40;;;;;;5087701;28;19904;-72
2022/03/20 01:47:54;;;;;;;;;;;76.90;1766.40;;;;;;5085619;28;19908;-74
2022/03/20 01:50:21;;;;;;;;;;;76.80;1766.40;;;;;;5086935;28;19998;-76
2022/03/20 01:52:47;;;;;;;;;;;76.80;1766.40;;;;;;5084839;28;19905;-73
2022/03/20 01:55:13;;;;;;;;;;;52.10;1766.40;;;;;;5085767;28;20362;-79
2022/03/20 01:57:39;;;;;;;;;;;76.90;1766.40;;;;;;5084016;28;20002;-79
2022/03/20 02:00:06;;;;;;;;;;;76.80;1766.40;;;;;;5086392;28;20394;-73
2022/03/20 02:02:31;;;;;;;;;;;76.80;1766.40;;;;;;5085109;28;20331;-79
2022/03/20 02:04:57;;;;;;;;;;;52.10;1766.40;;;;;;5085143;28;19908;-76
2022/03/20 02:07:23;;;;;;;;;;;52.10;1766.40;;;;;;5086653;28;19911;-79
2022/03/20 02:09:49;;;;;;;;;;;52.10;1766.40;;;;;;5083369;28;19904;-80
2022/03/20 02:12:14;;;;;;;;;;;52.10;1766.40;;;;;;5085085;28;20375;-73
2022/03/20 02:14:40;;;;;;;;;;;52.10;1766.40;;;;;;5086356;28;19904;-80
2022/03/20 02:17:07;;;;;;;;;;;76.80;1766.40;;;;;;5086493;28;20377;-73
2022/03/20 02:19:34;;;;;;;;;;;52.10;1766.40;;;;;;5083563;28;19927;-78
2022/03/20 02:22:00;;;;;;;;;;;52.10;1766.40;;;;;;5086221;28;19944;-79
2022/03/20 02:24:36;;;;;;;;;;;76.80;1766.40;;;;;;5086398;28;20268;-75
2022/03/20 02:27:05;;;;;;;;;;;77.10;1766.40;;;;;;5086219;28;20291;-79
2022/03/20 02:29:31;;;;;;;;;;;77.00;1740.80;;;;;;5080130;28;20382;-74
2022/03/20 02:31:58;;;;;;;;;;;77.10;1740.80;;;;;;5085888;28;19912;-79
2022/03/20 02:34:25;;;;;;;;;;;76.90;1740.80;;;;;;5083548;28;20348;-74
2022/03/20 02:36:51;;;;;;;;;;;52.10;1766.40;;;;;;5085602;28;19934;-74
2022/03/20 02:39:16;;;;;;;;;;;51.90;1766.40;;;;;;5085461;28;20354;-72
2022/03/20 02:41:44;;;;;;;;;;;52.10;1766.40;;;;;;5086486;28;20367;-79
2022/03/20 02:44:10;;;;;;;;;;;52.10;1766.40;;;;;;5081495;28;19905;-73
2022/03/20 02:46:37;;;;;;;;;;;52.10;1766.40;;;;;;5084779;28;19912;-78
2022/03/20 02:49:06;;;;;;;;;;;51.90;1766.40;;;;;;5085680;28;19912;-74
2022/03/20 02:51:32;;;;;;;;;;;51.90;1766.40;;;;;;5081836;28;19916;-75
2022/03/20 02:53:58;;;;;;;;;;;51.80;1766.40;;;;;;5086452;28;20401;-79
2022/03/20 02:56:26;;;;;;;;;;;51.80;1766.40;;;;;;5082184;28;20277;-72
2022/03/20 02:58:52;;;;;;;;;;;51.60;1792.00;;;;;;5085730;28;19925;-73
2022/03/20 03:01:17;;;;;;;;;;;51.80;1792.00;;;;;;5084461;28;19912;-72
2022/03/20 03:03:45;;;;;;;;;;;51.70;1792.00;;;;;;5083267;28;19959;-78
2022/03/20 03:06:14;;;;;;;;;;;51.70;1792.00;;;;;;5080972;28;19965;-73
2022/03/20 03:11:24;;;;;;;;;;;51.90;1792.00;;;;;;5085048;28;19974;-73
2022/03/20 03:13:49;;;;;;;;;;;51.80;1792.00;;;;;;5083282;28;19904;-73
2022/03/20 03:16:16;;;;;;;;;;;51.90;1792.00;;;;;;5083034;28;20357;-78
2022/03/20 03:18:44;;;;;;;;;;;52.00;1766.40;;;;;;5083332;28;20358;-73
2022/03/20 03:21:14;;;;;;;;;;;76.80;1766.40;;;;;;5083259;28;19910;-74
2022/03/20 03:23:39;;;;;;;;;;;52.10;1766.40;;;;;;5085361;28;19904;-77
2022/03/20 03:26:05;;;;;;;;;;;51.70;1766.40;;;;;;5083183;28;20086;-77
2022/03/20 03:28:34;;;;;;;;;;;51.60;1766.40;;;;;;5083618;28;19904;-73
2022/03/20 03:31:01;;;;;;;;;;;51.50;1792.00;;;;;;5085060;28;19916;-74
2022/03/20 03:33:26;;;;;;;;;;;51.40;1792.00;;;;;;5085203;28;19904;-79
2022/03/20 03:35:56;;;;;;;;;;;51.50;1792.00;;;;;;5082926;28;19912;-77
2022/03/20 03:38:23;;;;;;;;;;;51.40;1817.60;;;;;;5083316;28;19908;-74
2022/03/20 03:40:49;;;;;;;;;;;51.60;1817.60;;;;;;5085080;28;19948;-78
2022/03/20 03:43:17;;;;;;;;;;;51.50;1817.60;;;;;;5083447;28;20369;-73
2022/03/20 03:45:43;;;;;;;;;;;51.50;1817.60;;;;;;5083156;28;20231;-80
2022/03/20 03:48:09;;;;;;;;;;;51.40;1817.60;;;;;;5084506;28;19904;-76
2022/03/20 03:50:36;;;;;;;;;;;51.50;1817.60;;;;;;5082844;28;19920;-73
2022/03/20 03:53:03;;;;;;;;;;;51.50;1817.60;;;;;;5083253;28;19904;-76
2022/03/20 03:55:30;;;;;;;;;;;51.50;1817.60;;;;;;5085066;28;19911;-79
2022/03/20 03:57:55;;;;;;;;;;;51.50;1817.60;;;;;;5081966;28;19912;-73
2022/03/20 04:00:21;;;;;;;;;;;51.40;1817.60;;;;;;5083165;28;19912;-76
2022/03/20 04:02:48;;;;;;;;;;;26.40;1817.60;;;;;;5081968;28;19920;-76
2022/03/20 04:05:20;;;;;;;;;;;26.10;1843.20;;;;;;5085209;28;19996;-73
2022/03/20 04:07:47;;;;;;;;;;;51.20;1868.80;;;;;;5082712;28;19911;-75
2022/03/20 04:10:13;;;;;;;;;;;51.40;1843.20;;;;;;5079015;28;19908;-74
2022/03/20 04:12:40;;;;;;;;;;;51.60;1843.20;;;;;;5083488;28;19911;-74
2022/03/20 04:15:10;;;;;;;;;;;51.70;1817.60;;;;;;5082630;28;19904;-74
2022/03/20 04:17:37;;;;;;;;;;;51.70;1792.00;;;;;;5080499;28;19912;-74
2022/03/20 04:20:03;;;;;;;;;;;51.60;1766.40;;;;;;5082571;28;19955;-74
2022/03/20 04:22:28;;;;;;;;;;;51.80;1766.40;;;;;;5082215;28;19909;-73
2022/03/20 04:24:55;;;;;;;;;;;51.80;1766.40;;;;;;5084258;28;19915;-73
2022/03/20 04:27:20;;;;;;;;;;;51.70;1766.40;;;;;;5083429;28;19951;-75
2022/03/20 04:29:46;;;;;;;;;;;51.60;1792.00;;;;;;5082600;28;19904;-73
2022/03/20 04:32:13;;;;;;;;;;;51.30;1792.00;;;;;;5083039;28;20383;-79
2022/03/20 04:34:38;;;;;;;;;;;26.00;1817.60;;;;;;5081492;28;19911;-75
2022/03/20 04:37:05;;;;;;;;;;;25.70;1843.20;;;;;;5087391;28;19916;-73
2022/03/20 04:39:34;;;;;;;;;;;0.80;1894.40;;;;;;5086292;28;19938;-74
2022/03/20 04:42:00;;;;;;;;;;;0.60;1920.00;;;;;;5087379;28;19903;-79
2022/03/20 04:44:26;;;;;;;;;;;0.40;1945.60;;;;;;5087729;28;19970;-78
2022/03/20 04:46:52;;;;;;;;;;;0.40;1971.20;;;;;;5086185;28;19910;-79
2022/03/20 05:00:11;;;;;;;;;;;12.90;2022.40;;;;;;5081704;28;20014;-73
2022/03/20 05:02:36;;;;;;;;;;;0.00;2022.40;;;;;;5083241;28;20367;-78
2022/03/20 05:05:02;;;;;;;;;;;0.10;2048.00;;;;;;5088547;28;19912;-72
2022/03/20 05:07:28;;;;;;;;;;;0.60;2022.40;;;;;;5077462;28;19927;-78
2022/03/20 05:15:21;;;;;;;;;;;25.60;1945.60;;;;;;5084148;28;20311;-73
2022/03/20 05:17:47;;;;;;;;;;;0.70;1971.20;;;;;;5088222;28;19912;-73
2022/03/20 05:20:13;;;;;;;;;;;0.90;1996.80;;;;;;5087721;28;19911;-80
2022/03/20 05:22:39;;;;;;;;;;;0.90;1971.20;;;;;;5084692;28;19912;-79
2022/03/20 05:25:07;;;;;;;;;;;25.70;1996.80;;;;;;5081190;28;19909;-74
2022/03/20 05:27:33;;;;;;;;;;;26.20;1971.20;;;;;;5088241;28;19904;-73
2022/03/20 05:29:58;;;;;;;;;;;26.30;1945.60;;;;;;5084638;28;19995;-74
2022/03/20 05:32:25;;;;;;;;;;;26.50;1945.60;;;;;;5086144;28;20375;-79
2022/03/20 05:34:50;;;;;;;;;;;51.30;1945.60;;;;;;5085088;28;20292;-73
2022/03/20 05:37:16;;;;;;;;;;;51.40;1920.00;;;;;;5087124;28;19912;-77
2022/03/20 05:39:42;;;;;;;;;;;51.50;1920.00;;;;;;5085927;28;20311;-73
2022/03/20 05:42:07;;;;;;;;;;;51.60;1945.60;;;;;;5085259;28;19927;-72
2022/03/20 05:44:33;;;;;;;;;;;51.70;1945.60;;;;;;5085099;28;19905;-74
2022/03/20 05:46:59;;;;;;;;;;;51.90;1945.60;;;;;;5083977;28;20335;-77
2022/03/20 05:49:25;;;;;;;;;;;51.80;1945.60;;;;;;5087678;28;19951;-76
2022/03/20 05:51:51;;;;;;;;;;;51.90;1971.20;;;;;;5084880;28;20272;-79
2022/03/20 05:54:17;;;;;;;;;;;51.80;1971.20;;;;;;5087533;28;19912;-75
2022/03/20 05:59:27;;;;;;;;;;;52.10;1996.80;;;;;;5084684;28;19927;-79
2022/03/20 06:01:53;;;;;;;;;;;76.80;1971.20;;;;;;5083627;28;20580;-73
2022/03/20 06:04:20;;;;;;;;;;;76.80;1971.20;;;;;;5086947;28;19911;-73
2022/03/20 06:06:45;;;;;;;;;;;77.00;1971.20;;;;;;5083803;28;19991;-74
2022/03/20 06:09:11;;;;;;;;;;;77.20;1945.60;;;;;;5083887;28;19962;-77
2022/03/20 06:11:37;;;;;;;;;;;77.20;1945.60;;;;;;5077084;28;19940;-73
2022/03/20 06:14:03;;;;;;;;;;;77.10;1945.60;;;;;;5084503;28;20271;-77
2022/03/20 06:16:29;;;;;;;;;;;77.20;1920.00;;;;;;5085079;28;20002;-73
2022/03/20 06:18:55;;;;;;;;;;;77.30;1920.00;;;;;;5086603;28;20283;-78
2022/03/20 06:21:20;;;;;;;;;;;77.30;1920.00;;;;;;5086131;28;19907;-73
2022/03/20 06:23:46;;;;;;;;;;;77.20;1894.40;;;;;;5085478;28;20053;-74
2022/03/20 06:26:11;;;;;;;;;;;77.40;1894.40;;;;;;5084647;28;19904;-78
2022/03/20 06:28:41;;;;;;;;;;;77.50;1894.40;;;;;;5084980;28;19949;-80
2022/03/20 06:31:10;;;;;;;;;;;77.50;1894.40;;;;;;5083382;28;19912;-74
2022/03/20 06:33:39;;;;;;;;;;;102.50;1868.80;;;;;;5084759;28;19912;-74
2022/03/20 06:36:05;;;;;;;;;;;102.60;1843.20;;;;;;5084541;28;19955;-73
2022/03/20 06:38:31;;;;;;;;;;;102.80;1817.60;;;;;;5086781;28;19908;-73
2022/03/20 06:40:57;;;;;;;;;;;103.00;1792.00;;;;;;5086443;28;20424;-79
2022/03/20 06:43:23;;;;;;;;;;;103.10;1766.40;;;;;;5083224;28;20373;-79
2022/03/20 06:45:49;;;;;;;;;;;103.20;1740.80;;;;;;5085061;28;19908;-73
2022/03/20 06:48:15;;;;;;;;;;;103.20;1740.80;;;;;;5083825;28;20004;-79
2022/03/20 06:50:41;;;;;;;;;;;103.30;1715.20;;;;;;5083414;28;20023;-74
2022/03/20 06:53:06;;;;;;;;;;;128.20;1740.80;;;;;;5084773;28;19910;-73
2022/03/20 06:55:32;;;;;;;;;;;128.50;1689.60;;;;;;5085170;28;19930;-76
2022/03/20 06:57:58;;;;;;;;;;;128.40;1664.00;;;;;;5082025;28;19912;-76
2022/03/20 07:00:28;;;;;;;;;;;128.60;1664.00;;;;;;5085025;28;19943;-78
2022/03/20 07:02:54;;;;;;;;;;;128.80;1638.40;;;;;;5075621;28;20352;-75
2022/03/20 07:05:20;;;;;;;;;;;153.70;1664.00;;;;;;5084237;28;19915;-78
2022/03/20 07:07:45;;;;;;;;;;;153.80;1612.80;;;;;;5082596;28;19904;-78
2022/03/20 07:10:13;;;;;;;;;;;154.00;1587.20;;;;;;5083947;28;19957;-72
2022/03/20 07:12:39;;;;;;;;;;;154.10;1536.00;;;;;;5085181;28;19908;-73
2022/03/20 07:15:05;;;;;;;;;;;154.10;1510.40;;;;;;5083348;28;19932;-74
2022/03/20 07:17:30;;;;;;;;;;;154.20;1536.00;;;;;;5083813;28;19934;-73
2022/03/20 07:19:58;;;;;;;;;;;154.40;1510.40;;;;;;5085098;28;19904;-74
2022/03/20 07:22:23;;;;;;;;;;;154.50;1510.40;;;;;;5082592;28;19904;-72
2022/03/20 07:24:49;;;;;;;;;;;154.50;1510.40;;;;;;5083822;28;19904;-79
2022/03/20 07:29:59;;;;;;;;;;;179.30;1459.20;;;;;;5085058;28;20371;-73
2022/03/20 07:32:25;;;;;;;;;;;179.40;1433.60;;;;;;5084721;28;19904;-73
2022/03/20 07:34:50;;;;;;;;;;;179.40;1459.20;;;;;;5083919;28;19912;-72
2022/03/20 07:37:18;;;;;;;;;;;179.30;1433.60;;;;;;5085293;28;19912;-73
2022/03/20 07:39:50;;;;;;;;;;;179.60;1433.60;;;;;;5080046;28;19908;-75
2022/03/20 07:42:18;;;;;;;;;;;179.50;1433.60;;;;;;5082913;28;19908;-78
2022/03/20 07:44:43;;;;;;;;;;;179.50;1433.60;;;;;;5079897;28;20316;-74
2022/03/20 07:47:17;;;;;;;;;;;179.60;1408.00;;;;;;5083865;28;20004;-75
2022/03/20 07:49:43;;;;;;;;;;;179.70;1408.00;;;;;;5084301;28;19904;-78
2022/03/20 07:52:09;;;;;;;;;;;179.70;1382.40;;;;;;5083131;28;19913;-73
2022/03/20 07:54:36;;;;;;;;;;;179.90;1382.40;;;;;;5085285;28;19948;-74
2022/03/20 07:57:03;;;;;;;;;;;179.70;1356.80;;;;;;5079175;28;19974;-73
2022/03/20 07:59:28;;;;;;;;;;;179.80;1408.00;;;;;;5077208;28;19936;-75
2022/03/20 08:01:54;;;;;;;;;;;179.70;1356.80;;;;;;5083053;28;19988;-78
2022/03/20 08:04:20;;;;;;;;;;;179.60;1356.80;;;;;;5083284;28;20310;-74
2022/03/20 08:06:45;;;;;;;;;;;179.80;1356.80;;;;;;5084184;28;19904;-77
2022/03/20 08:09:11;;;;;;;;;;;179.80;1356.80;;;;;;5083200;28;19983;-77
2022/03/20 08:11:36;;;;;;;;;;;179.80;1331.20;;;;;;5081777;28;19904;-76
2022/03/20 08:14:07;;;;;;;;;;;179.90;1331.20;;;;;;5084735;28;20359;-74
2022/03/20 08:16:35;;;;;;;;;;;180.00;1356.80;;;;;;5083125;28;19915;-75
2022/03/20 08:19:00;;;;;;;;;;;180.00;1331.20;;;;;;5082458;28;19954;-78
2022/03/20 08:21:26;;;;;;;;;;;180.00;1305.60;;;;;;5084248;28;19943;-75
2022/03/20 08:23:53;;;;;;;;;;;179.70;1305.60;;;;;;5084325;28;19930;-75
2022/03/20 08:26:19;;;;;;;;;;;179.90;1331.20;;;;;;5083972;28;19987;-76
2022/03/20 08:28:47;;;;;;;;;;;179.90;1305.60;;;;;;5084487;28;19915;-74
2022/03/20 08:31:12;;;;;;;;;;;180.00;1305.60;;;;;;5083129;28;19938;-75
2022/03/20 08:33:40;;;;;;;;;;;180.10;1331.20;;;;;;5082630;28;19991;-80
2022/03/20 08:36:06;;;;;;;;;;;180.10;1305.60;;;;;;5082114;28;20371;-75
2022/03/20 08:38:32;;;;;;;;;;;204.80;1305.60;;;;;;5083379;28;19960;-75
2022/03/20 08:40:58;;;;;;;;;;;204.80;1331.20;;;;;;5083824;28;19904;-78
2022/03/20 08:43:24;;;;;;;;;;;180.10;1305.60;;;;;;5081938;28;19904;-72
2022/03/20 08:45:50;;;;;;;;;;;204.80;1331.20;;;;;;5083786;28;20002;-74
2022/03/20 08:48:16;;;;;;;;;;;204.90;1305.60;;;;;;5083286;28;19908;-74
2022/03/20 08:50:48;;;;;;;;;;;205.10;1280.00;;;;;;5082103;28;19927;-73
2022/03/20 08:53:20;;;;;;;;;;;205.20;1305.60;;;;;;5086183;28;19904;-79
2022/03/20 08:55:47;;;;;;;;;;;205.10;1280.00;;;;;;5083932;28;19911;-75
2022/03/20 08:58:13;;;;;;;;;;;205.20;1280.00;;;;;;5084225;28;20004;-74
2022/03/20 09:00:39;;;;;;;;;;;205.20;1254.40;;;;;;5083179;28;19916;-77
2022/03/20 09:03:05;;;;;;;;;;;205.20;1254.40;;;;;;5081625;28;19958;-73
2022/03/20 09:05:30;;;;;;;;;;;205.30;1254.40;;;;;;5082394;28;19908;-76
2022/03/20 09:07:57;;;;;;;;;;;205.30;1254.40;;;;;;5082638;28;19904;-74
2022/03/20 09:10:23;;;;;;;;;;;205.50;1254.40;;;;;;5083984;28;19916;-77
2022/03/20 09:12:49;;;;;;;;;;;205.60;1254.40;;;;;;5082027;28;19908;-79
2022/03/20 09:15:15;;;;;;;;;;;230.40;1254.40;;;;;;5083087;28;19954;-76
2022/03/20 09:20:26;;;;;;;;;;;230.50;1228.80;;;;;;5080811;28;19910;-74
2022/03/20 09:22:52;;;;;;;;;;;230.60;1228.80;;;;;;5079377;28;19991;-75
2022/03/20 09:25:18;;;;;;;;;;;230.70;1228.80;;;;;;5084994;28;19905;-75
2022/03/20 09:27:44;;;;;;;;;;;230.70;1228.80;;;;;;5085256;28;19904;-78
2022/03/20 09:30:10;;;;;;;;;;;230.90;1228.80;;;;;;5084338;28;19957;-73
2022/03/20 09:32:36;;;;;;;;;;;230.60;1203.20;;;;;;5086108;28;20311;-73
2022/03/20 09:35:02;;;;;;;;;;;230.60;1228.80;;;;;;5085406;28;19934;-79
2022/03/20 09:37:27;;;;;;;;;;;230.70;1228.80;;;;;;5078516;28;19913;-75
2022/03/20 09:39:53;;;;;;;;;;;230.60;1203.20;;;;;;5076487;28;19994;-78
2022/03/20 09:42:19;;;;;;;;;;;230.70;1203.20;;;;;;5076491;28;19950;-74
2022/03/20 09:44:44;;;;;;;;;;;230.90;1203.20;;;;;;5076265;28;19998;-75
2022/03/20 09:47:16;;;;;;;;;;;231.10;1203.20;;;;;;5076292;28;19912;-75
2022/03/20 09:49:43;;;;;;;;;;;231.10;1203.20;;;;;;5075362;28;19916;-76
2022/03/20 09:52:09;;;;;;;;;;;256.00;1177.60;;;;;;5076106;28;19916;-73
2022/03/20 09:54:35;;;;;;;;;;;256.20;1152.00;;;;;;5075991;28;20449;-76
2022/03/20 09:57:05;;;;;;;;;;;256.60;1152.00;;;;;;5075840;28;20006;-79
2022/03/20 09:59:31;;;;;;;;;;;256.50;1126.40;;;;;;5074993;28;19947;-80
2022/03/20 10:02:07;;;;;;;;;;;256.40;1126.40;;;;;;5075783;28;19962;-74
2022/03/20 10:04:50;;;;;;;;;;;256.50;1126.40;;;;;;5076261;28;19943;-74
2022/03/20 10:07:22;;;;;;;;;;;256.60;1100.80;;;;;;5074658;28;20284;-79
2022/03/20 10:10:07;;;;;;;;;;;256.70;1126.40;;;;;;5075929;28;19911;-75
2022/03/20 10:12:33;;;;;;;;;;;256.90;1100.80;;;;;;5075024;28;19911;-74
2022/03/20 10:14:59;;;;;;;;;;;256.90;1100.80;;;;;;5073479;28;19917;-75
2022/03/20 10:17:25;;;;;;;;;;;256.90;1100.80;;;;;;5081498;28;19923;-74
2022/03/20 10:19:50;;;;;;;;;;;282.00;1100.80;;;;;;5087108;28;19905;-79
2022/03/20 10:22:17;;;;;;;;;;;281.60;1100.80;;;;;;5066964;28;20303;-79
2022/03/20 10:24:47;;;;;;;;;;;282.00;1075.20;;;;;;5068764;28;19905;-74
2022/03/20 10:27:14;;;;;;;;;;;282.10;1075.20;;;;;;5068136;28;20335;-75
2022/03/20 10:29:46;;;;;;;;;;;282.10;1049.60;;;;;;5071004;28;19905;-74
2022/03/20 10:32:12;;;;;;;;;;;282.40;1049.60;;;;;;5073327;28;20376;-76
2022/03/20 10:34:54;;;;;;;;;;;282.50;1049.60;;;;;;5068077;28;19962;-75
2022/03/20 10:37:22;;;;;;;;;;;282.30;1049.60;;;;;;5070806;28;19947;-76
2022/03/20 10:39:47;;;;;;;;;;;282.30;1049.60;;;;;;5070785;28;20335;-75
2022/03/20 10:42:14;;;;;;;;;;;307.20;1049.60;;;;;;5075115;28;19951;-78
2022/03/20 10:44:40;;;;;;;;;;;307.30;1049.60;;;;;;5075125;28;20276;-81
2022/03/20 10:47:12;;;;;;;;;;;307.30;1024.00;;;;;;5071769;28;19908;-77
2022/03/20 10:49:42;;;;;;;;;;;282.50;998.40;;;;;;5075041;28;20003;-74
2022/03/20 10:52:09;;;;;;;;;;;282.50;972.80;;;;;;5072190;28;19916;-75
2022/03/20 10:54:42;;;;;;;;;;;307.20;1049.60;;;;;;5079596;28;19966;-74
2022/03/20 10:57:09;;;;;;;;;;;307.70;1049.60;;;;;;5063638;28;19916;-73
2022/03/20 10:59:34;;;;;;;;;;;308.10;1049.60;;;;;;5063097;28;19947;-77
2022/03/20 11:02:01;;;;;;;;;;;308.00;1049.60;;;;;;5074293;28;19919;-79
2022/03/20 11:04:28;;;;;;;;;;;333.20;1049.60;;;;;;5074489;28;19911;-74
2022/03/20 11:06:54;;;;;;;;;;;308.10;1024.00;;;;;;5074882;28;20315;-73
2022/03/20 11:09:20;;;;;;;;;;;308.00;1024.00;;;;;;5074287;28;19926;-72
2022/03/20 11:11:52;;;;;;;;;;;333.10;1049.60;;;;;;5074166;28;20407;-78
2022/03/20 11:14:19;;;;;;;;;;;333.40;1024.00;;;;;;5073819;28;19905;-78
2022/03/20 11:16:52;;;;;;;;;;;333.40;1024.00;;;;;;5074260;28;20339;-75
2022/03/20 11:19:29;;;;;;;;;;;333.50;1049.60;;;;;;5074518;28;20402;-78
2022/03/20 11:21:59;;;;;;;;;;;358.50;998.40;;;;;;5072772;28;20322;-75
2022/03/20 11:24:25;;;;;;;;;;;358.50;972.80;;;;;;5073922;28;19908;-75
2022/03/20 11:26:51;;;;;;;;;;;333.60;972.80;;;;;;5074172;28;19904;-74
2022/03/20 11:29:18;;;;;;;;;;;358.40;972.80;;;;;;5074301;28;19904;-72
2022/03/20 11:31:44;;;;;;;;;;;333.40;998.40;;;;;;5074074;28;19916;-75
2022/03/20 11:34:11;;;;;;;;;;;333.70;998.40;;;;;;5074031;28;19987;-79
2022/03/20 11:36:55;;;;;;;;;;;333.70;1024.00;;;;;;5073699;28;20275;-74
2022/03/20 11:39:20;;;;;;;;;;;358.60;972.80;;;;;;5079012;28;19919;-73
2022/03/20 11:41:46;;;;;;;;;;;358.50;972.80;;;;;;5082843;28;19904;-79
2022/03/20 11:44:11;;;;;;;;;;;358.70;947.20;;;;;;5077191;28;19947;-80
2022/03/20 11:46:37;;;;;;;;;;;358.80;947.20;;;;;;5073287;28;19905;-78
2022/03/20 11:49:17;;;;;;;;;;;333.70;947.20;;;;;;5074189;28;19905;-80
2022/03/20 11:52:03;;;;;;;;;;;358.70;947.20;;;;;;5073884;28;20057;-75
2022/03/20 11:54:30;;;;;;;;;;;358.70;947.20;;;;;;5073039;28;20375;-73
2022/03/20 11:56:55;;;;;;;;;;;358.80;947.20;;;;;;5073524;28;19920;-76
2022/03/20 11:59:40;;;;;;;;;;;358.60;947.20;;;;;;5073696;28;19997;-75
2022/03/20 12:02:06;;;;;;;;;;;358.90;921.60;;;;;;5073642;28;19958;-75
2022/03/20 12:04:39;;;;;;;;;;;358.70;921.60;;;;;;5072452;28;19904;-75
2022/03/20 12:07:10;;;;;;;;;;;358.70;972.80;;;;;;5073852;28;20117;-75
2022/03/20 12:09:54;;;;;;;;;;;358.80;947.20;;;;;;5073576;28;19912;-79
2022/03/20 12:12:32;;;;;;;;;;;333.50;947.20;;;;;;5070471;28;19912;-74
2022/03/20 12:15:03;;;;;;;;;;;358.40;972.80;;;;;;5073835;28;19914;-74
2022/03/20 12:17:49;;;;;;;;;;;358.60;972.80;;;;;;5081305;28;19924;-78
2022/03/20 12:20:34;;;;;;;;;;;358.80;947.20;;;;;;5080457;28;20276;-78
2022/03/20 12:23:18;;;;;;;;;;;358.80;896.00;;;;;;5096148;28;19957;-75
2022/03/20 12:25:44;;;;;;;;;;;333.70;896.00;;;;;;5086603;28;19986;-73
2022/03/20 12:28:30;;;;;;;;;;;359.00;921.60;;;;;;5093695;28;19910;-73
2022/03/20 12:30:55;;;;;;;;;;;359.20;896.00;;;;;;5093045;28;19916;-73
2022/03/20 12:33:22;;;;;;;;;;;333.70;921.60;;;;;;5093857;28;19911;-75
2022/03/20 12:35:48;;;;;;;;;;;358.50;921.60;;;;;;5093798;28;19904;-75
2022/03/20 12:38:37;;;;;;;;;;;333.60;972.80;;;;;;5093666;28;20294;-74
2022/03/20 12:41:22;;;;;;;;;;;333.50;947.20;;;;;;5093419;28;20430;-78
2022/03/20 12:43:58;;;;;;;;;;;358.70;921.60;;;;;;5090240;28;19904;-73
2022/03/20 12:46:24;;;;;;;;;;;358.80;921.60;;;;;;5070816;28;19904;-73
2022/03/20 12:48:51;;;;;;;;;;;359.10;947.20;;;;;;5073304;28;19905;-74
2022/03/20 12:51:20;;;;;;;;;;;359.20;921.60;;;;;;5073103;28;20380;-75
2022/03/20 12:53:46;;;;;;;;;;;384.00;947.20;;;;;;5073050;28;19904;-74
2022/03/20 12:58:46;;;;;;;;;;;359.00;947.20;;;;;;5077202;28;19915;-74
2022/03/20 13:01:12;;;;;;;;;;;359.00;947.20;;;;;;5076973;28;19912;-78
2022/03/20 13:03:38;;;;;;;;;;;358.70;947.20;;;;;;5076721;28;19908;-74
2022/03/20 13:06:04;;;;;;;;;;;358.70;972.80;;;;;;5077032;28;19991;-77
2022/03/20 13:08:32;;;;;;;;;;;358.80;972.80;;;;;;5076666;28;19916;-76
2022/03/20 13:14:08;;;;;;;;;;;358.60;972.80;;;;;;5077137;28;19912;-74
2022/03/20 13:16:34;;;;;;;;;;;358.40;972.80;;;;;;5076590;28;19966;-73
2022/03/20 13:19:00;;;;;;;;;;;358.50;972.80;;;;;;5075051;28;19905;-75
2022/03/20 13:21:26;;;;;;;;;;;358.50;972.80;;;;;;5076687;28;19947;-76
2022/03/20 13:23:52;;;;;;;;;;;358.40;972.80;;;;;;5076551;28;19944;-75
2022/03/20 13:26:18;;;;;;;;;;;333.50;998.40;;;;;;5073797;28;20306;-75
2022/03/20 13:28:45;;;;;;;;;;;333.70;972.80;;;;;;5074089;28;20264;-75
2022/03/20 13:31:20;;;;;;;;;;;333.70;972.80;;;;;;5084722;28;19912;-74
2022/03/20 13:33:59;;;;;;;;;;;333.70;972.80;;;;;;5082779;28;19939;-74
2022/03/20 13:36:26;;;;;;;;;;;333.50;972.80;;;;;;5073450;28;20050;-77
2022/03/20 13:38:53;;;;;;;;;;;358.40;972.80;;;;;;5076322;28;19915;-75
2022/03/20 13:41:21;;;;;;;;;;;358.60;947.20;;;;;;5074887;28;19904;-78
2022/03/20 13:43:47;;;;;;;;;;;358.70;947.20;;;;;;5075925;28;20009;-75
2022/03/20 13:46:12;;;;;;;;;;;358.70;947.20;;;;;;5076217;28;20395;-75
2022/03/20 13:48:38;;;;;;;;;;;358.60;921.60;;;;;;5074727;28;19934;-75
2022/03/20 13:51:07;;;;;;;;;;;358.40;947.20;;;;;;5075960;28;19956;-80
2022/03/20 13:53:35;;;;;;;;;;;333.60;947.20;;;;;;5074857;28;19905;-76
2022/03/20 13:56:01;;;;;;;;;;;333.70;947.20;;;;;;5075870;28;19905;-75
2022/03/20 13:58:27;;;;;;;;;;;333.40;947.20;;;;;;5075621;28;19951;-75
2022/03/20 14:01:00;;;;;;;;;;;333.60;947.20;;;;;;5077679;28;19963;-73
2022/03/20 14:03:26;;;;;;;;;;;333.50;972.80;;;;;;5082782;28;20043;-79
2022/03/20 14:05:52;;;;;;;;;;;333.30;998.40;;;;;;5084703;28;19904;-74
2022/03/20 14:08:19;;;;;;;;;;;333.50;972.80;;;;;;5083143;28;19940;-74
2022/03/20 14:10:59;;;;;;;;;;;333.60;972.80;;;;;;5083464;28;19931;-74
2022/03/20 14:13:24;;;;;;;;;;;333.60;972.80;;;;;;5083031;28;19912;-76
2022/03/20 14:15:53;;;;;;;;;;;333.50;998.40;;;;;;5084078;28;19904;-75
2022/03/20 14:18:19;;;;;;;;;;;333.50;972.80;;;;;;5086245;28;19913;-74
2022/03/20 14:20:44;;;;;;;;;;;333.30;972.80;;;;;;5082282;28;19914;-74
2022/03/20 14:23:11;;;;;;;;;;;333.40;972.80;;;;;;5084005;28;19947;-80